Logo AVAMET
Benvolgut visitant, si us plau, ingressa Recuperar contrasenya
AVAMET paisatges

Inforatge Mislata

Dades diàries. Acumulats / Últims 30 dies disponibles

Data Temperatura (°C) Humitat rel. (%) Pressió rel. (hPa) Vent (km/h) Precipitació
Mínima Mitjana Màxima Amplitud
tèrmica
Mínima Mitjana Màxima Mínima Mitjana Màxima Predom. Mitjana Ràfega
màxima
Total
(mm)
Índex-n
Mínima Mitjana Màxima Mínima Mitjana Màxima n
0 a 1
P0 max
mm 5'
Dades mensuals acumulades fins l'últim dia disponible
04/2020 12,2 12,2 12,2 14,0 16,1 18,4 20,6 8,4 56 79 93 1.010 1.013 1.016   5,9 32,2 0,6
Dades anuals acumulades fins l'últim dia disponible
2020 2,3 9,4 16,3 13,2 8,9 18,1 26,5 24,2 18 72 97 999 1.023 1.036   5,5 86,9 136,6
Últims 30 dies disponibles
02-04-2020 12,2     13,3     16,1 3,9 67 79 87 1.012 1.013 1.016 NE 4,8 32,2 0,2
01-04-2020 12,2     14,7     20,6 8,4 56 79 93 1.010 1.012 1.014 W 6,9 30,6 0,4
31-03-2020 7,5     10,8     15,5 8,0 73 87 94 1.010 1.012 1.015 SSO 6,8 33,8 11,8 0,30 0,40
30-03-2020 8,4     12,9     15,9 7,5 58 69 87 1.013 1.014 1.015 NE 7,7 35,4 0,8
29-03-2020 8,2     15,1     22,6 14,4 32 62 82 1.013 1.017 1.021 W 6,1 30,6 0,0
28-03-2020 6,1     11,7     16,5 10,4 44 67 89 1.018 1.019 1.021 W 4,5 30,6 0,0
27-03-2020 7,1     9,3     12,2 5,1 65 82 90 1.014 1.015 1.018 NE 3,2 25,7 1,4
26-03-2020 7,2     11,2     17,1 9,9 33 70 90 1.008 1.011 1.015 NE 6,6 38,6 0,4
25-03-2020 8,9     10,3     12,0 3,1 74 81 89 1.016 1.018 1.019 NE 4,7 37,0 0,4
24-03-2020 12,0     13,8     14,6 2,6 68 79 90 1.017 1.018 1.020 NE 20,8 62,8 0,0
23-03-2020 12,1     13,9     16,1 4,0 68 88 94 1.016 1.017 1.019 NE 11,1 38,6 5,0 0,32 0,80
22-03-2020 10,9     12,9     15,2 4,3 71 87 97 1.013 1.014 1.016 NE 6,1 29,0 9,0 0,42 0,40
21-03-2020 10,7     12,9     14,4 3,7 75 83 91 1.013 1.015 1.019 NE 3,9 24,1 1,4 0,42 0,40
20-03-2020 12,6     13,7     14,8 2,2 75 83 91 1.018 1.020 1.022 NE 10,1 33,8 0,4
19-03-2020 11,1     13,4     15,8 4,7 76 85 91 1.022 1.024 1.027 NE 5,8 29,0 0,0
18-03-2020 11,8     14,1     16,3 4,5 67 81 89 1.026 1.028 1.030 NE 7,6 32,2 0,0
17-03-2020 9,9     12,7     14,8 4,9 84 92 96 1.021 1.025 1.030 NE 9,0 51,5 15,8 0,51 0,60
16-03-2020 10,0     12,4     15,0 5,0 72 84 91 1.012 1.015 1.021 W 7,4 30,6 3,4 0,20
15-03-2020 11,6     14,6     17,7 6,1 60 81 90 1.015 1.019 1.022 W 4,8 29,0 0,0
14-03-2020 11,2     14,8     18,8 7,6 59 79 88 1.020 1.021 1.023 E 3,2 20,9 0,0
13-03-2020 12,3     14,9     17,7 5,4 67 81 93 1.019 1.021 1.022 NE 5,6 32,2 0,0
12-03-2020 12,2     15,4     19,9 7,7 60 77 91 1.018 1.021 1.023 NE 2,9 20,9 0,0
11-03-2020 11,1     16,4     23,3 12,2 39 64 78 1.023 1.024 1.025 ENE 3,2 22,5 0,0
10-03-2020 12,5     16,1     19,0 6,5 35 53 68 1.024 1.025 1.027 E 4,5 24,1 0,0
09-03-2020 10,7     16,6     23,1 12,4 25 48 72 1.021 1.023 1.025 W 4,2 30,6 0,0
08-03-2020 9,2     14,7     22,0 12,8 29 58 74 1.021 1.024 1.026 W 4,8 30,6 0,0
07-03-2020 10,4     14,2     20,4 10,0 33 45 62 1.021 1.023 1.025 W 8,4 38,6 0,0
06-03-2020 11,8     14,9     18,9 7,1 23 42 60 1.013 1.016 1.023 W 11,4 48,3 0,0
05-03-2020 15,8     18,4     22,1 6,3 34 51 64 1.008 1.012 1.017 W 13,8 57,9 0,0
04-03-2020 16,3     19,9     24,8 8,5 38 54 70 1.016 1.017 1.019 W 10,6 38,6 0,0
Últims 13 mesos disponibles
03/2020 6,1 10,9 16,3 14,3 12,0 18,0 24,8 18,7 42 70 92 1.008 1.018 1.028 NE 8,0 80,5 50,4
02/2020 6,3 10,0 13,5 14,5 14,2 20,4 26,5 20,2 47 71 89 1.014 1.026 1.034 W 3,8 51,5 0,6
01/2020 2,3 7,1 14,7 10,9 8,9 15,9 21,8 19,5 55 75 95 1.017 1.026 1.034 W 4,6 86,9 85,0
12/2019 5,7 10,6 17,9 13,8 12,8 18,0 24,6 18,9 51 69 92 1.003 1.020 1.034 W 6,2 82,1 68,2
11/2019 5,2 12,2 21,1 15,8 15,8 19,9 28,9 23,7 40 55 79 999 1.011 1.019 W 8,9 64,4 4,2
10/2019 11,6 16,4 20,8 20,4 16,5 25,2 35,0 23,4 41 67 83 1.009 1.017 1.023 W 4,4 45,1 22,4
09/2019 15,7 20,4 23,9 23,9 21,1 27,5 34,3 18,6 41 71 83 1.011 1.018 1.026 SSE 6,3 59,6 112,4
08/2019 18,8 22,8 27,4 26,5 26,9 30,4 41,4 22,6 41 69 79 1.011 1.017 1.021 SSE 6,2 61,1 5,6
07/2019 21,8 23,2 25,3 26,8 27,3 30,6 37,1 15,3 49 65 77 1.006 1.015 1.022 SE 6,5 46,7 10,4
06/2019 13,5 18,6 22,4 22,7 20,2 26,5 35,3 21,8 37 62 79 1.009 1.016 1.023 SE 7,1 63,0 0,0
05/2019 9,2 15,0 20,9 18,9 18,4 22,8 32,6 23,4 47 65 85 1.006 1.016 1.025 SSE 6,5 55,6 23,0
04/2019 8,8 11,7 14,4 15,5 15,3 20,0 30,3 21,5 43 65 97 1.000 1.014 1.026 OSO 8,4 77,8 56,8
03/2019 6,7 9,8 16,1 14,7 12,8 19,7 29,3 22,6 38 58 85 1.012 1.024 1.030 S 5,7 58,0 14,4
Tots els anys disponibles
2019 2,0 14,6 27,4 18,6 12,3 23,0 41,4 39,4 34 64 97 995 1.018 1.035 W 6,4 82,1 317,6
2018 2,6 15,0 26,3 18,6 9,0 22,8 36,6 34,0 36 66 93 994 1.017 1.036 S 5,8 77,8 571,4
Temperatura (°C)
Humitat relativa (%)
Velocitat del vent i ràfega màxima (km/h)
Direcció del vent (°)
Pressió (hPa)
Precipitació (mm)
Nota sobre les dades: s'avisa a l'usuari de la provisionalitat i no oficialitat d'aquestes dades
Logo AVAMET blanc
Web allotjada a Sollutia
Llicència de Creative CommonsLa web d'AVAMET i els seus continguts estan subjectes a una llicència de
Reconeixement - No Comercial - Compartir igual
Últimes estacions:  Altea - Com. Regants (Soci), Almoines (Inforatge), Beniparrell (Inforatge), Albal (Inforatge), Almussafes - Parc Industrial (Inforatge), La Vilavella (Soci), la Serratella (soci) - - -